createdAt,value
2023-03-16T00:00:21.554Z,-0.70
2023-03-16T00:03:11.871Z,-0.72
2023-03-16T00:05:40.012Z,-0.73
2023-03-16T00:08:07.974Z,-0.72
2023-03-16T00:10:36.610Z,-0.71
2023-03-16T00:13:04.648Z,-0.72
2023-03-16T00:15:32.522Z,-0.74
2023-03-16T00:18:00.461Z,-0.77
2023-03-16T00:20:28.807Z,-0.77
2023-03-16T00:22:56.973Z,-0.78
2023-03-16T00:25:25.488Z,-0.78
2023-03-16T00:27:53.391Z,-0.80
2023-03-16T00:30:21.270Z,-0.82
2023-03-16T00:32:49.204Z,-0.83
2023-03-16T00:35:18.589Z,-0.84
2023-03-16T00:37:46.596Z,-0.86
2023-03-16T00:40:14.832Z,-0.85
2023-03-16T00:42:44.043Z,-0.88
2023-03-16T00:45:12.165Z,-0.88
2023-03-16T00:47:40.139Z,-0.88
2023-03-16T00:50:08.558Z,-0.88
2023-03-16T00:52:36.542Z,-0.87
2023-03-16T00:55:04.930Z,-0.89
2023-03-16T00:57:32.978Z,-0.90
2023-03-16T01:00:05.348Z,-0.92
2023-03-16T01:02:37.140Z,-0.92
2023-03-16T01:05:05.777Z,-0.94
2023-03-16T01:07:36.180Z,-0.95
2023-03-16T01:10:04.913Z,-0.97
2023-03-16T01:12:34.007Z,-0.99
2023-03-16T01:15:02.595Z,-1.02
2023-03-16T01:17:34.987Z,-1.03
2023-03-16T01:20:08.200Z,-1.04
2023-03-16T01:22:36.158Z,-1.07
2023-03-16T01:25:04.400Z,-1.09
2023-03-16T01:27:33.142Z,-1.10
2023-03-16T01:30:02.926Z,-1.08
2023-03-16T01:32:31.397Z,-1.11
2023-03-16T01:34:59.619Z,-1.17
2023-03-16T01:37:27.542Z,-1.18
2023-03-16T01:40:11.953Z,-1.17
2023-03-16T01:42:59.298Z,-1.19
2023-03-16T01:45:55.515Z,-1.19
2023-03-16T01:48:26.648Z,-1.20
2023-03-16T01:50:57.556Z,-1.22
2023-03-16T01:53:26.822Z,-1.23
2023-03-16T01:55:55.476Z,-1.25
2023-03-16T01:58:23.696Z,-1.27
2023-03-16T02:00:51.762Z,-1.27
2023-03-16T02:03:22.515Z,-1.26
2023-03-16T02:06:07.035Z,-1.29
2023-03-16T02:08:38.945Z,-1.31
2023-03-16T02:11:09.820Z,-1.32
2023-03-16T02:13:45.977Z,-1.34
2023-03-16T02:16:19.447Z,-1.34
2023-03-16T02:18:51.077Z,-1.34
2023-03-16T02:21:35.528Z,-1.33
2023-03-16T02:24:05.481Z,-1.35
2023-03-16T02:26:53.627Z,-1.34
2023-03-16T02:29:44.157Z,-1.36
2023-03-16T02:32:14.689Z,-1.35
2023-03-16T02:34:43.166Z,-1.33
2023-03-16T02:37:12.322Z,-1.34
2023-03-16T02:39:44.135Z,-1.30
2023-03-16T02:42:18.952Z,-1.33
2023-03-16T02:44:52.238Z,-1.36
2023-03-16T02:47:31.112Z,-1.34
2023-03-16T02:49:59.106Z,-1.36
2023-03-16T02:52:27.130Z,-1.37
2023-03-16T02:54:55.392Z,-1.41
2023-03-16T02:57:23.704Z,-1.45
2023-03-16T02:59:52.565Z,-1.48
2023-03-16T03:02:20.667Z,-1.53
2023-03-16T03:04:48.972Z,-1.53
2023-03-16T03:07:17.074Z,-1.54
2023-03-16T03:09:56.282Z,-1.56
2023-03-16T03:12:24.593Z,-1.56
2023-03-16T03:14:52.584Z,-1.59
2023-03-16T03:17:20.999Z,-1.62
2023-03-16T03:19:49.132Z,-1.63
2023-03-16T03:22:19.064Z,-1.65
2023-03-16T03:24:47.687Z,-1.69
2023-03-16T03:27:15.782Z,-1.74
2023-03-16T03:29:44.741Z,-1.77
2023-03-16T03:32:13.389Z,-1.80
2023-03-16T03:34:42.695Z,-1.79
2023-03-16T03:37:10.813Z,-1.78
2023-03-16T03:39:41.038Z,-1.78
2023-03-16T03:42:09.209Z,-1.79
2023-03-16T03:44:37.656Z,-1.85
2023-03-16T03:47:05.940Z,-1.89
2023-03-16T03:49:33.985Z,-1.97
2023-03-16T03:52:05.031Z,-2.03
2023-03-16T03:54:33.699Z,-2.10
2023-03-16T03:57:06.637Z,-2.16
2023-03-16T03:59:35.279Z,-2.24
2023-03-16T04:02:21.246Z,-2.28
2023-03-16T04:04:54.858Z,-2.34
2023-03-16T04:07:23.071Z,-2.38
2023-03-16T04:09:52.818Z,-2.40
2023-03-16T04:12:28.396Z,-2.41
2023-03-16T04:14:56.607Z,-2.42
2023-03-16T04:17:24.987Z,-2.47
2023-03-16T04:19:53.908Z,-2.51
2023-03-16T04:22:23.382Z,-2.55
2023-03-16T04:24:52.345Z,-2.58
2023-03-16T04:27:21.274Z,-2.61
2023-03-16T04:29:49.275Z,-2.60
2023-03-16T04:32:17.387Z,-2.61
2023-03-16T04:34:47.224Z,-2.63
2023-03-16T04:37:15.424Z,-2.67
2023-03-16T04:39:44.121Z,-2.70
2023-03-16T04:42:12.540Z,-2.69
2023-03-16T04:44:44.512Z,-2.68
2023-03-16T04:47:16.169Z,-2.66
2023-03-16T04:49:44.975Z,-2.65
2023-03-16T04:52:13.497Z,-2.63
2023-03-16T04:54:41.919Z,-2.63
2023-03-16T04:57:10.822Z,-2.65
2023-03-16T04:59:43.194Z,-2.66
2023-03-16T05:02:20.085Z,-2.65
2023-03-16T05:04:48.701Z,-2.63
2023-03-16T05:07:17.268Z,-2.62
2023-03-16T05:09:48.789Z,-2.57
2023-03-16T05:12:35.264Z,-2.55
2023-03-16T05:15:06.205Z,-2.55
2023-03-16T05:17:57.287Z,-2.51
2023-03-16T05:20:25.282Z,-2.50
2023-03-16T05:22:55.272Z,-2.45
2023-03-16T05:25:29.453Z,-2.37
2023-03-16T05:27:59.397Z,-2.28
2023-03-16T05:30:35.344Z,-2.19
2023-03-16T05:33:05.415Z,-2.14
2023-03-16T05:35:34.085Z,-2.09
2023-03-16T05:38:05.699Z,-2.01
2023-03-16T05:40:34.832Z,-1.93
2023-03-16T05:43:10.560Z,-1.84
2023-03-16T05:45:43.302Z,-1.75
2023-03-16T05:48:15.075Z,-1.60
2023-03-16T05:50:46.802Z,-1.44
2023-03-16T05:53:15.930Z,-1.30
2023-03-16T05:55:43.991Z,-1.19
2023-03-16T05:58:14.120Z,-1.04
2023-03-16T06:00:42.687Z,-0.89
2023-03-16T06:03:18.778Z,-0.80
2023-03-16T06:05:47.540Z,-0.76
2023-03-16T06:08:16.453Z,-0.75
2023-03-16T06:10:48.344Z,-0.76
2023-03-16T06:13:17.468Z,-0.74
2023-03-16T06:15:45.615Z,-0.72
2023-03-16T06:18:14.242Z,-0.68
2023-03-16T06:20:42.357Z,-0.65
2023-03-16T06:23:10.232Z,-0.67
2023-03-16T06:25:40.605Z,-0.61
2023-03-16T06:28:09.274Z,-0.56
2023-03-16T06:30:38.329Z,-0.49
2023-03-16T06:33:06.567Z,-0.42
2023-03-16T06:35:34.970Z,-0.36
2023-03-16T06:38:25.797Z,-0.23
2023-03-16T06:41:02.961Z,-0.18
2023-03-16T06:43:31.432Z,-0.16
2023-03-16T06:45:59.540Z,-0.14
2023-03-16T06:48:27.676Z,-0.13
2023-03-16T06:50:55.951Z,-0.11
2023-03-16T06:53:27.493Z,-0.02
2023-03-16T06:55:56.434Z,0.04
2023-03-16T06:58:24.994Z,0.10
2023-03-16T07:00:54.033Z,0.14
2023-03-16T07:03:30.664Z,0.17
2023-03-16T07:06:28.315Z,0.22
2023-03-16T07:10:47.189Z,0.30
2023-03-16T07:13:24.179Z,0.42
2023-03-16T07:15:53.045Z,0.50
2023-03-16T07:18:21.909Z,0.55
2023-03-16T07:20:53.393Z,0.59
2023-03-16T07:23:24.964Z,0.66
2023-03-16T07:25:56.055Z,0.75
2023-03-16T07:28:24.623Z,0.82
2023-03-16T07:31:03.275Z,0.88
2023-03-16T07:33:36.070Z,0.93
2023-03-16T07:36:06.457Z,1.00
2023-03-16T07:38:42.659Z,1.09
2023-03-16T07:41:11.853Z,1.17
2023-03-16T07:43:40.378Z,1.24
2023-03-16T07:46:13.942Z,1.31
2023-03-16T07:48:46.038Z,1.38
2023-03-16T07:51:15.619Z,1.49
2023-03-16T07:53:47.850Z,1.63
2023-03-16T07:56:21.563Z,1.72
2023-03-16T07:58:53.260Z,1.81
2023-03-16T08:01:23.433Z,1.89
2023-03-16T08:03:51.966Z,2.01
2023-03-16T08:06:21.704Z,2.08
2023-03-16T08:08:52.937Z,2.15
2023-03-16T08:11:26.335Z,2.20
2023-03-16T08:13:58.156Z,2.25
2023-03-16T08:16:35.633Z,2.27
2023-03-16T08:19:06.442Z,2.32
2023-03-16T08:21:49.227Z,2.38
2023-03-16T08:24:24.116Z,2.48
2023-03-16T08:26:53.420Z,2.57
2023-03-16T08:29:26.856Z,2.63
2023-03-16T08:31:57.807Z,2.68
2023-03-16T08:34:33.772Z,2.75
2023-03-16T08:37:16.476Z,2.80
2023-03-16T08:40:00.639Z,2.90
2023-03-16T08:42:30.054Z,2.93
2023-03-16T08:45:12.316Z,2.97
2023-03-16T08:47:42.698Z,3.00
2023-03-16T08:50:15.990Z,3.02
2023-03-16T08:52:52.080Z,3.03
2023-03-16T08:55:21.183Z,3.03
2023-03-16T08:57:50.490Z,3.12
2023-03-16T09:00:20.535Z,3.19
2023-03-16T09:02:50.464Z,3.15
2023-03-16T09:05:20.006Z,3.09
2023-03-16T09:07:49.926Z,3.12
2023-03-16T09:10:23.503Z,3.19
2023-03-16T09:12:53.455Z,3.22
2023-03-16T09:15:22.433Z,3.29
2023-03-16T09:17:51.195Z,3.35
2023-03-16T09:20:29.536Z,3.36
2023-03-16T09:22:59.126Z,3.46
2023-03-16T09:25:36.420Z,3.52
2023-03-16T09:28:05.896Z,3.49
2023-03-16T09:30:37.261Z,3.44
2023-03-16T09:33:06.840Z,3.51
2023-03-16T09:35:37.259Z,3.62
2023-03-16T09:38:06.755Z,3.63
2023-03-16T09:40:38.328Z,3.56
2023-03-16T09:43:30.358Z,3.45
2023-03-16T09:46:14.493Z,3.45
2023-03-16T09:48:43.903Z,3.55
2023-03-16T09:51:23.539Z,3.65
2023-03-16T09:54:01.691Z,3.83
2023-03-16T09:56:42.370Z,4.01
2023-03-16T09:59:18.477Z,4.12
2023-03-16T10:02:11.896Z,4.21
2023-03-16T10:04:55.673Z,4.21
2023-03-16T10:07:38.235Z,4.22
2023-03-16T10:10:47.199Z,4.23
2023-03-16T10:13:41.750Z,4.28
2023-03-16T10:16:20.739Z,4.35
2023-03-16T10:19:03.374Z,4.27
2023-03-16T10:21:38.740Z,4.12
2023-03-16T10:24:41.762Z,3.92
2023-03-16T10:27:28.742Z,3.88
2023-03-16T10:29:57.294Z,4.00
2023-03-16T10:32:34.747Z,4.18
2023-03-16T10:35:12.850Z,4.41
2023-03-16T10:37:53.308Z,4.54
2023-03-16T10:40:23.498Z,4.54
2023-03-16T10:42:53.862Z,4.67
2023-03-16T10:45:25.527Z,4.71
2023-03-16T10:47:54.505Z,4.65
2023-03-16T10:50:25.766Z,4.71
2023-03-16T10:52:57.117Z,4.75
2023-03-16T10:55:31.193Z,4.77
2023-03-16T10:58:02.527Z,4.70
2023-03-16T11:00:38.726Z,4.60
2023-03-16T11:03:27.536Z,4.43
2023-03-16T11:06:00.774Z,4.38
2023-03-16T11:08:35.066Z,4.34
2023-03-16T11:11:14.794Z,4.39
2023-03-16T11:13:48.265Z,4.46
2023-03-16T11:16:37.421Z,4.61
2023-03-16T11:19:29.509Z,4.79
2023-03-16T11:21:59.110Z,4.84
2023-03-16T11:24:43.000Z,4.68
2023-03-16T11:27:22.904Z,4.52
2023-03-16T11:30:16.687Z,4.44
2023-03-16T11:32:51.220Z,4.40
2023-03-16T11:35:59.195Z,4.40
2023-03-16T11:38:44.934Z,4.28
2023-03-16T11:41:28.978Z,4.26
2023-03-16T11:44:10.535Z,4.29
2023-03-16T11:47:00.599Z,4.30
2023-03-16T11:50:00.229Z,4.49
2023-03-16T11:52:46.359Z,4.67
2023-03-16T11:55:29.677Z,4.70
2023-03-16T11:58:22.974Z,4.63
2023-03-16T12:01:20.784Z,4.54
2023-03-16T12:04:02.370Z,4.35
2023-03-16T12:06:53.523Z,4.05
2023-03-16T12:09:42.656Z,3.84
2023-03-16T12:12:37.677Z,3.77
2023-03-16T12:15:32.367Z,3.86
2023-03-16T12:18:13.093Z,4.10
2023-03-16T12:20:54.121Z,4.36
2023-03-16T12:23:52.532Z,4.59
2023-03-16T12:26:24.355Z,4.77
2023-03-16T12:28:55.449Z,4.87
2023-03-16T12:31:47.613Z,4.96
2023-03-16T12:34:41.192Z,5.05
2023-03-16T12:37:44.917Z,5.01
2023-03-16T12:40:39.707Z,4.92
2023-03-16T12:43:24.796Z,4.96
2023-03-16T12:46:14.238Z,5.09
2023-03-16T12:48:54.040Z,5.09
2023-03-16T12:51:36.986Z,5.02
2023-03-16T12:54:07.691Z,4.97
2023-03-16T12:56:46.109Z,4.94
2023-03-16T12:59:43.811Z,4.95
2023-03-16T13:02:22.257Z,4.99
2023-03-16T13:04:59.795Z,4.94
2023-03-16T13:07:33.634Z,4.88
2023-03-16T13:10:10.114Z,4.87
2023-03-16T13:12:41.791Z,4.86
2023-03-16T13:15:22.964Z,4.85
2023-03-16T13:18:11.357Z,4.75
2023-03-16T13:21:01.903Z,4.66
2023-03-16T13:23:58.226Z,4.62
2023-03-16T13:26:38.846Z,4.63
2023-03-16T13:29:24.042Z,4.57
2023-03-16T13:31:56.522Z,4.53
2023-03-16T13:34:32.440Z,4.55
2023-03-16T13:37:04.292Z,4.56
2023-03-16T13:39:32.733Z,4.56
2023-03-16T13:42:20.354Z,4.58
2023-03-16T13:44:55.916Z,4.57
2023-03-16T13:47:26.620Z,4.57
2023-03-16T13:50:01.153Z,4.60
2023-03-16T13:52:35.425Z,4.63
2023-03-16T13:55:15.392Z,4.68
2023-03-16T13:57:49.193Z,4.73
2023-03-16T14:00:24.826Z,4.78
2023-03-16T14:02:59.040Z,4.75
2023-03-16T14:05:31.368Z,4.74
2023-03-16T14:08:05.044Z,4.73
2023-03-16T14:10:36.590Z,4.69
2023-03-16T14:13:25.456Z,4.66
2023-03-16T14:15:55.576Z,4.61
2023-03-16T14:18:37.711Z,4.51
2023-03-16T14:21:09.333Z,4.43
2023-03-16T14:23:41.470Z,4.41
2023-03-16T14:26:15.264Z,4.49
2023-03-16T14:29:06.434Z,4.63
2023-03-16T14:31:38.548Z,4.74
2023-03-16T14:34:21.465Z,4.77
2023-03-16T14:36:49.564Z,4.78
2023-03-16T14:39:21.695Z,4.78
2023-03-16T14:41:51.411Z,4.80
2023-03-16T14:44:25.057Z,4.81
2023-03-16T14:46:57.089Z,4.79
2023-03-16T14:49:28.873Z,4.73
2023-03-16T14:52:02.933Z,4.71
2023-03-16T14:54:31.244Z,4.75
2023-03-16T14:57:05.927Z,4.84
2023-03-16T14:59:34.300Z,4.90
2023-03-16T15:02:04.283Z,4.97
2023-03-16T15:04:37.495Z,5.01
2023-03-16T15:07:21.408Z,5.04
2023-03-16T15:09:50.688Z,5.07
2023-03-16T15:12:19.916Z,5.04
2023-03-16T15:15:07.028Z,5.04
2023-03-16T15:17:35.136Z,5.03
2023-03-16T15:20:03.591Z,5.05
2023-03-16T15:22:35.587Z,5.09
2023-03-16T15:25:36.389Z,5.12
2023-03-16T15:28:17.489Z,5.15
2023-03-16T15:30:50.976Z,5.16
2023-03-16T15:33:19.651Z,5.17
2023-03-16T15:35:50.490Z,5.17
2023-03-16T15:38:23.255Z,5.23
2023-03-16T15:40:52.191Z,5.27
2023-03-16T15:43:23.198Z,5.21
2023-03-16T15:45:54.472Z,5.14
2023-03-16T15:48:24.610Z,5.12
2023-03-16T15:51:07.735Z,5.11
2023-03-16T15:53:40.511Z,5.04
2023-03-16T15:56:16.593Z,4.96
2023-03-16T15:58:46.139Z,4.85
2023-03-16T16:01:25.571Z,4.80
2023-03-16T16:03:56.272Z,4.78
2023-03-16T16:06:25.030Z,4.77
2023-03-16T16:08:53.066Z,4.72
2023-03-16T16:11:26.455Z,4.65
2023-03-16T16:13:57.217Z,4.58
2023-03-16T16:16:29.974Z,4.55
2023-03-16T16:18:58.305Z,4.55
2023-03-16T16:21:29.258Z,4.49
2023-03-16T16:23:57.510Z,4.46
2023-03-16T16:26:49.090Z,4.44
2023-03-16T16:29:22.774Z,4.34
2023-03-16T16:31:54.415Z,4.29
2023-03-16T16:34:25.086Z,4.29
2023-03-16T16:36:58.446Z,4.34
2023-03-16T16:39:41.622Z,4.34
2023-03-16T16:42:17.013Z,4.31
2023-03-16T16:44:45.221Z,4.22
2023-03-16T16:47:22.360Z,4.26
2023-03-16T16:49:51.210Z,4.26
2023-03-16T16:52:19.933Z,4.25
2023-03-16T16:54:47.987Z,4.29
2023-03-16T16:57:20.125Z,4.29
2023-03-16T16:59:48.837Z,4.25
2023-03-16T17:02:30.860Z,4.20
2023-03-16T17:04:58.965Z,3.97
2023-03-16T17:07:27.345Z,3.85
2023-03-16T17:09:56.267Z,3.77
2023-03-16T17:12:25.029Z,3.66
2023-03-16T17:14:53.165Z,3.61
2023-03-16T17:17:22.196Z,3.57
2023-03-16T17:19:51.772Z,3.58
2023-03-16T17:22:24.507Z,3.58
2023-03-16T17:24:54.090Z,3.58
2023-03-16T17:27:27.204Z,3.51
2023-03-16T17:29:57.146Z,3.42
2023-03-16T17:32:26.176Z,3.38
2023-03-16T17:34:54.597Z,3.31
2023-03-16T17:37:23.258Z,3.24
2023-03-16T17:39:52.082Z,3.21
2023-03-16T17:42:23.063Z,3.18
2023-03-16T17:44:53.671Z,3.16
2023-03-16T17:47:27.072Z,3.19
2023-03-16T17:49:57.150Z,3.15
2023-03-16T17:52:29.405Z,3.10
2023-03-16T17:54:57.696Z,3.06
2023-03-16T17:57:30.711Z,3.01
2023-03-16T18:00:00.813Z,2.93
2023-03-16T18:02:54.371Z,2.88
2023-03-16T18:05:28.311Z,2.84
2023-03-16T18:08:01.416Z,2.80
2023-03-16T18:10:33.100Z,2.73
2023-03-16T18:13:05.432Z,2.68
2023-03-16T18:15:36.739Z,2.65
2023-03-16T18:18:07.776Z,2.60
2023-03-16T18:20:37.599Z,2.55
2023-03-16T18:23:17.379Z,2.49
2023-03-16T18:25:46.490Z,2.44
2023-03-16T18:28:15.952Z,2.35
2023-03-16T18:30:47.559Z,2.32
2023-03-16T18:33:34.290Z,2.26
2023-03-16T18:36:06.756Z,2.16
2023-03-16T18:38:37.783Z,2.07
2023-03-16T18:41:20.184Z,2.03
2023-03-16T18:43:53.410Z,2.02
2023-03-16T18:46:29.196Z,2.02
2023-03-16T18:49:05.313Z,2.02
2023-03-16T18:51:33.708Z,2.03
2023-03-16T18:54:02.478Z,2.05
2023-03-16T18:56:30.983Z,2.06
2023-03-16T18:58:59.239Z,2.08
2023-03-16T19:01:30.548Z,2.12
2023-03-16T19:04:01.088Z,2.14
2023-03-16T19:06:35.687Z,2.14
2023-03-16T19:09:20.846Z,2.14
2023-03-16T19:11:49.983Z,2.10
2023-03-16T19:14:24.780Z,2.09
2023-03-16T19:16:54.078Z,2.08
2023-03-16T19:19:24.407Z,2.08
2023-03-16T19:21:56.489Z,2.09
2023-03-16T19:24:35.104Z,2.09
2023-03-16T19:27:07.106Z,2.09
2023-03-16T19:29:36.779Z,2.06
2023-03-16T19:32:05.032Z,2.07
2023-03-16T19:34:33.358Z,2.07
2023-03-16T19:37:01.657Z,2.07
2023-03-16T19:39:30.327Z,2.06
2023-03-16T19:41:58.985Z,2.02
2023-03-16T19:44:28.940Z,1.96
2023-03-16T19:46:59.230Z,1.95
2023-03-16T19:49:28.223Z,1.92
2023-03-16T19:51:57.161Z,1.90
2023-03-16T19:54:33.547Z,1.84
2023-03-16T19:57:08.128Z,1.81
2023-03-16T19:59:37.192Z,1.81
2023-03-16T20:02:25.211Z,1.79
2023-03-16T20:04:55.128Z,1.77
2023-03-16T20:07:23.315Z,1.75
2023-03-16T20:09:51.682Z,1.70
2023-03-16T20:12:22.819Z,1.70
2023-03-16T20:14:52.152Z,1.71
2023-03-16T20:17:23.805Z,1.65
2023-03-16T20:19:53.165Z,1.57
2023-03-16T20:22:24.510Z,1.54
2023-03-16T20:24:54.503Z,1.49
2023-03-16T20:27:24.305Z,1.44
2023-03-16T20:29:54.472Z,1.43
2023-03-16T20:32:28.913Z,1.41
2023-03-16T20:34:58.263Z,1.40
2023-03-16T20:37:29.322Z,1.39
2023-03-16T20:39:59.148Z,1.37
2023-03-16T20:42:32.952Z,1.39
2023-03-16T20:45:01.906Z,1.45
2023-03-16T20:47:30.302Z,1.48
2023-03-16T20:49:58.455Z,1.50
2023-03-16T20:52:30.834Z,1.53
2023-03-16T20:54:59.154Z,1.52
2023-03-16T20:57:29.784Z,1.52
2023-03-16T20:59:58.093Z,1.45
2023-03-16T21:02:35.173Z,1.40
2023-03-16T21:05:05.957Z,1.43
2023-03-16T21:07:34.038Z,1.47
2023-03-16T21:10:02.174Z,1.51
2023-03-16T21:12:35.665Z,1.54
2023-03-16T21:15:16.245Z,1.55
2023-03-16T21:17:44.248Z,1.56
2023-03-16T21:20:20.261Z,1.55
2023-03-16T21:22:48.303Z,1.54
2023-03-16T21:25:26.126Z,1.53
2023-03-16T21:27:56.237Z,1.45
2023-03-16T21:30:30.886Z,1.31
2023-03-16T21:33:01.912Z,1.19
2023-03-16T21:35:36.342Z,1.15
2023-03-16T21:38:14.445Z,1.17
2023-03-16T21:40:43.428Z,1.11
2023-03-16T21:43:12.166Z,1.00
2023-03-16T21:45:41.215Z,0.89
2023-03-16T21:48:20.425Z,0.90
2023-03-16T21:50:49.840Z,0.94
2023-03-16T21:53:23.849Z,0.96
2023-03-16T21:55:53.488Z,0.96
2023-03-16T21:58:23.613Z,0.92
2023-03-16T22:00:53.748Z,0.86
2023-03-16T22:03:27.364Z,0.83
2023-03-16T22:05:58.031Z,0.89
2023-03-16T22:08:29.564Z,0.98
2023-03-16T22:10:58.153Z,1.04
2023-03-16T22:13:26.959Z,1.10
2023-03-16T22:15:57.596Z,1.16
2023-03-16T22:18:34.611Z,1.20
2023-03-16T22:21:30.782Z,1.23
2023-03-16T22:24:00.015Z,1.23
2023-03-16T22:26:29.303Z,1.22
2023-03-16T22:28:59.771Z,1.15
2023-03-16T22:31:35.760Z,1.12
2023-03-16T22:34:04.708Z,1.09
2023-03-16T22:36:33.909Z,1.02
2023-03-16T22:39:08.846Z,1.05
2023-03-16T22:41:36.954Z,1.12
2023-03-16T22:44:05.163Z,1.18
2023-03-16T22:46:33.175Z,1.21
2023-03-16T22:49:01.151Z,1.21
2023-03-16T22:51:33.258Z,1.21
2023-03-16T22:54:08.402Z,1.18
2023-03-16T22:56:37.446Z,1.19
2023-03-16T22:59:07.997Z,1.19
2023-03-16T23:01:41.980Z,1.21
2023-03-16T23:04:20.031Z,1.24
2023-03-16T23:06:54.750Z,1.25
2023-03-16T23:09:23.476Z,1.26
2023-03-16T23:11:54.344Z,1.19
2023-03-16T23:14:30.079Z,1.12
2023-03-16T23:16:58.138Z,1.15
2023-03-16T23:19:30.794Z,1.18
2023-03-16T23:22:05.186Z,1.23
2023-03-16T23:24:34.127Z,1.27
2023-03-16T23:27:03.681Z,1.28
2023-03-16T23:29:32.291Z,1.21
2023-03-16T23:32:00.421Z,1.15
2023-03-16T23:34:28.399Z,1.18
2023-03-16T23:36:56.915Z,1.23
2023-03-16T23:39:25.829Z,1.26
2023-03-16T23:41:53.795Z,1.31
2023-03-16T23:44:25.397Z,1.35
2023-03-16T23:46:53.796Z,1.30
2023-03-16T23:49:28.885Z,1.26
2023-03-16T23:51:59.556Z,1.27
2023-03-16T23:54:30.604Z,1.17
2023-03-16T23:56:58.707Z,1.16
2023-03-16T23:59:29.024Z,1.16
